Time;durP1;ratioP1;P1;durP2;ratioP2;P2;SDS_P1;SDS_P2;PMS_P1;PMS_P2;Temp;Humidity;BMP_temperature;BMP_pressure;BME280_temperature;BME280_humidity;BME280_pressure;Samples;Min_cycle;Max_cycle;Signal;HPM_P1;HPM_P2
2021/03/02 00:00:09;;;;;;;99.53;27.88;;;0.00;95.10;;;;;;5005797;28;20029;-66
2021/03/02 00:02:35;;;;;;;94.45;26.58;;;-3276.70;95.10;;;;;;4999366;28;20131;-65
2021/03/02 00:05:03;;;;;;;95.38;28.02;;;-3276.60;95.20;;;;;;4997960;28;20445;-66
2021/03/02 00:07:30;;;;;;;95.03;26.50;;;-3276.60;95.10;;;;;;4997757;28;20062;-66
2021/03/02 00:09:58;;;;;;;108.97;26.73;;;-3276.50;95.00;;;;;;4996003;28;20077;-67
2021/03/02 00:12:24;;;;;;;108.97;27.08;;;-3276.60;95.20;;;;;;5001793;28;20060;-66
2021/03/02 00:14:50;;;;;;;103.55;28.00;;;-3276.70;95.40;;;;;;5004250;28;20073;-68
2021/03/02 00:17:33;;;;;;;104.18;26.92;;;-3276.60;95.30;;;;;;4998751;28;20034;-68
2021/03/02 00:20:16;;;;;;;97.40;26.00;;;-3276.60;95.30;;;;;;4997279;28;20112;-66
2021/03/02 00:22:58;;;;;;;96.68;25.02;;;-3276.40;95.20;;;;;;5001364;28;20445;-65
2021/03/02 00:25:36;;;;;;;105.47;27.10;;;-3276.50;95.20;;;;;;5000181;28;20441;-66
2021/03/02 00:28:06;;;;;;;94.55;25.60;;;-3276.40;95.10;;;;;;5000299;28;20046;-66
2021/03/02 00:30:33;;;;;;;87.93;24.15;;;-3276.40;95.10;;;;;;4999046;28;21010;-66
2021/03/02 00:33:01;;;;;;;93.57;24.77;;;-3276.30;95.10;;;;;;5001504;28;20022;-67
2021/03/02 00:35:27;;;;;;;103.85;24.42;;;-3276.30;95.00;;;;;;5000314;28;20033;-66
2021/03/02 00:37:52;;;;;;;81.97;23.92;;;-3276.30;95.20;;;;;;5002735;28;20042;-65
2021/03/02 00:40:18;;;;;;;95.00;25.60;;;-3276.30;95.10;;;;;;5005564;28;20036;-65
2021/03/02 00:42:44;;;;;;;96.70;24.85;;;-3276.30;95.30;;;;;;5003383;28;20288;-67
2021/03/02 00:45:11;;;;;;;98.63;24.88;;;-3276.30;95.30;;;;;;5000995;28;20073;-67
2021/03/02 00:47:36;;;;;;;86.32;24.40;;;-3276.30;95.30;;;;;;5000887;28;20465;-66
2021/03/02 00:50:04;;;;;;;84.97;24.38;;;-3276.30;95.40;;;;;;5000631;28;20041;-67
2021/03/02 00:52:29;;;;;;;89.05;23.90;;;-3276.30;95.40;;;;;;5000858;28;20031;-67
2021/03/02 00:54:55;;;;;;;79.38;23.30;;;-3276.10;95.20;;;;;;5003303;28;20132;-66
2021/03/02 00:57:20;;;;;;;90.55;24.05;;;-3276.10;95.20;;;;;;5001686;28;20034;-67
2021/03/02 00:59:46;;;;;;;98.22;25.25;;;-3276.00;95.10;;;;;;5005644;28;20639;-66
2021/03/02 01:02:12;;;;;;;112.82;25.42;;;-3276.10;95.00;;;;;;5006724;28;20026;-68
2021/03/02 01:04:37;;;;;;;127.72;24.33;;;-3276.00;95.00;;;;;;5007401;28;20042;-67
2021/03/02 01:07:04;;;;;;;98.78;25.25;;;-3276.10;95.20;;;;;;5005310;28;20037;-67
2021/03/02 01:09:30;;;;;;;99.55;25.08;;;-3276.10;95.30;;;;;;5005520;28;20026;-67
2021/03/02 01:11:56;;;;;;;104.57;26.65;;;-3276.10;95.30;;;;;;5006182;28;20544;-67
2021/03/02 01:14:21;;;;;;;106.28;24.67;;;-3276.00;95.40;;;;;;5008293;28;20101;-67
2021/03/02 01:16:47;;;;;;;101.97;25.92;;;-3276.10;95.50;;;;;;5006237;28;20101;-66
2021/03/02 01:19:13;;;;;;;111.57;27.15;;;-3276.00;95.50;;;;;;5003837;28;20694;-66
2021/03/02 01:21:38;;;;;;;108.97;27.33;;;-3276.00;95.50;;;;;;5005642;28;20037;-68
2021/03/02 01:24:04;;;;;;;106.05;26.40;;;-3276.00;95.40;;;;;;4996795;28;20046;-67
2021/03/02 01:26:30;;;;;;;100.55;25.60;;;-3276.00;95.40;;;;;;5004077;28;20053;-68
2021/03/02 01:28:55;;;;;;;98.78;25.27;;;-3275.90;95.30;;;;;;4995131;28;20062;-66
2021/03/02 01:31:21;;;;;;;104.53;25.92;;;-3275.80;95.20;;;;;;5006019;28;20108;-68
2021/03/02 01:33:47;;;;;;;100.03;25.30;;;-3275.80;95.20;;;;;;5002151;28;20551;-66
2021/03/02 01:36:12;;;;;;;120.47;25.83;;;-3275.80;95.30;;;;;;5008917;28;20072;-68
2021/03/02 01:38:39;;;;;;;97.85;24.58;;;-3275.90;95.50;;;;;;5004990;28;20022;-66
2021/03/02 01:41:05;;;;;;;100.78;26.27;;;-3275.90;95.40;;;;;;5006422;28;20033;-68
2021/03/02 01:43:30;;;;;;;100.90;24.77;;;-3275.90;95.50;;;;;;5006496;28;20595;-68
2021/03/02 01:45:56;;;;;;;102.45;25.45;;;-3275.80;95.30;;;;;;5007861;28;20030;-67
2021/03/02 01:48:21;;;;;;;105.25;26.13;;;-3275.70;95.30;;;;;;4997942;28;20037;-66
2021/03/02 01:50:47;;;;;;;119.15;26.58;;;-3275.70;95.30;;;;;;5004239;28;20120;-66
2021/03/02 01:53:13;;;;;;;129.85;26.77;;;-3275.80;95.50;;;;;;4996977;28;20029;-66
2021/03/02 01:55:39;;;;;;;121.80;28.35;;;-3275.80;95.60;;;;;;5006818;28;20018;-67
2021/03/02 01:58:04;;;;;;;115.35;27.08;;;-3275.90;95.60;;;;;;5000045;28;20084;-65
2021/03/02 02:00:31;;;;;;;119.43;28.83;;;-3275.80;95.70;;;;;;5006155;28;20398;-68
2021/03/02 02:03:10;;;;;;;118.43;27.88;;;-3275.80;95.70;;;;;;5003747;28;20052;-67
2021/03/02 02:05:49;;;;;;;113.18;27.33;;;-3275.70;95.60;;;;;;5008651;28;20442;-67
2021/03/02 02:08:21;;;;;;;145.98;29.85;;;-3275.70;95.60;;;;;;5000993;28;20022;-67
2021/03/02 02:11:00;;;;;;;134.77;28.23;;;-3275.90;95.80;;;;;;5001403;28;20085;-67
2021/03/02 02:13:31;;;;;;;131.38;28.83;;;-3275.70;95.80;;;;;;5002586;28;20044;-67
2021/03/02 02:16:00;;;;;;;131.00;28.38;;;-3275.70;95.80;;;;;;5006191;28;20064;-67
2021/03/02 02:18:33;;;;;;;142.10;29.48;;;-3275.70;95.80;;;;;;5007223;28;20028;-66
2021/03/02 02:21:07;;;;;;;146.57;28.33;;;-3275.70;95.90;;;;;;5004827;28;20033;-65
2021/03/02 02:23:38;;;;;;;134.73;28.25;;;-3275.80;95.90;;;;;;5005856;28;20046;-67
2021/03/02 02:26:38;;;;;;;143.75;29.40;;;-3275.70;95.90;;;;;;5002444;28;20394;-66
2021/03/02 02:29:05;;;;;;;122.15;27.75;;;-3275.60;95.80;;;;;;5005727;28;20108;-67
2021/03/02 02:31:32;;;;;;;125.57;27.48;;;-3275.60;95.90;;;;;;5004627;28;20120;-66
2021/03/02 02:33:59;;;;;;;130.00;28.10;;;-3275.60;95.90;;;;;;4999906;28;20033;-67
2021/03/02 02:36:25;;;;;;;138.68;27.23;;;-3275.60;95.90;;;;;;5005160;28;20057;-66
2021/03/02 02:38:59;;;;;;;144.10;28.60;;;-3275.60;95.90;;;;;;5005091;28;20084;-65
2021/03/02 02:41:27;;;;;;;144.00;30.30;;;-3275.70;96.00;;;;;;4981105;28;20561;-66
2021/03/02 02:43:54;;;;;;;141.13;30.25;;;-3275.70;96.00;;;;;;4999516;28;20050;-67
2021/03/02 02:46:21;;;;;;;156.98;29.10;;;-3275.60;95.90;;;;;;5006893;28;20108;-66
2021/03/02 02:48:50;;;;;;;152.45;31.73;;;-3275.60;96.00;;;;;;5002640;28;20034;-68
2021/03/02 02:51:17;;;;;;;134.30;28.10;;;-3275.60;95.90;;;;;;5006668;28;20378;-66
2021/03/02 02:53:43;;;;;;;132.73;29.02;;;-3275.50;95.90;;;;;;5004111;28;20119;-68
2021/03/02 02:56:13;;;;;;;138.85;27.50;;;-3275.50;95.80;;;;;;5001215;28;20045;-68
2021/03/02 02:58:57;;;;;;;136.98;27.98;;;-3275.50;95.80;;;;;;5003783;28;20168;-66
2021/03/02 03:01:25;;;;;;;129.10;26.25;;;-3275.40;95.70;;;;;;5002521;28;20026;-67
2021/03/02 03:03:53;;;;;;;128.10;26.50;;;-3275.40;95.70;;;;;;5005274;28;20033;-68
2021/03/02 03:06:22;;;;;;;131.60;29.05;;;-3275.40;95.80;;;;;;4991998;28;20401;-67
2021/03/02 03:08:50;;;;;;;130.43;26.48;;;-3275.40;95.80;;;;;;4999714;28;20046;-67
2021/03/02 03:11:20;;;;;;;116.95;27.00;;;-3275.40;95.80;;;;;;5002483;28;20030;-69
2021/03/02 03:13:46;;;;;;;115.00;25.63;;;-3275.40;95.80;;;;;;5003201;28;20076;-66
2021/03/02 03:16:13;;;;;;;104.95;25.38;;;-3275.30;95.70;;;;;;5007682;28;20442;-67
2021/03/02 03:18:49;;;;;;;126.50;27.15;;;-3275.30;95.70;;;;;;5005505;28;20049;-67
2021/03/02 03:21:15;;;;;;;118.47;26.60;;;-3275.30;95.80;;;;;;4997691;28;20041;-68
2021/03/02 03:23:42;;;;;;;154.48;29.02;;;-3275.30;95.60;;;;;;5006306;28;20025;-68
2021/03/02 03:26:14;;;;;;;132.95;29.02;;;-3275.30;95.70;;;;;;4995361;28;20121;-67
2021/03/02 03:28:41;;;;;;;162.50;29.65;;;-3275.40;95.80;;;;;;4997887;28;20034;-67
2021/03/02 03:31:09;;;;;;;129.38;27.13;;;-3275.40;95.80;;;;;;5008092;28;20026;-67
2021/03/02 03:33:36;;;;;;;138.63;28.20;;;-3275.40;95.80;;;;;;5003671;28;20079;-67
2021/03/02 03:36:01;;;;;;;134.10;29.52;;;-3275.30;95.80;;;;;;4998768;28;20034;-67
2021/03/02 03:38:27;;;;;;;121.15;26.45;;;-3275.20;95.70;;;;;;5000582;28;20038;-66
2021/03/02 03:40:53;;;;;;;117.68;25.95;;;-3275.30;95.70;;;;;;5007783;28;20026;-65
2021/03/02 03:43:18;;;;;;;132.90;27.17;;;-3275.20;95.60;;;;;;4997725;28;20486;-67
2021/03/02 03:45:44;;;;;;;149.77;28.75;;;-3275.10;95.50;;;;;;4999212;28;20030;-67
2021/03/02 03:48:10;;;;;;;131.10;27.25;;;-3275.20;95.60;;;;;;4993818;28;20445;-68
2021/03/02 03:50:36;;;;;;;131.18;27.58;;;-3275.20;95.60;;;;;;5002677;28;20117;-67
2021/03/02 03:53:05;;;;;;;106.65;24.63;;;-3275.20;95.50;;;;;;5006124;28;20110;-67
2021/03/02 03:55:35;;;;;;;121.13;27.70;;;-3275.10;95.50;;;;;;4998702;28;21620;-68
2021/03/02 03:58:01;;;;;;;122.32;27.75;;;-3275.20;95.50;;;;;;5003278;28;20030;-67
2021/03/02 04:00:28;;;;;;;103.63;26.42;;;-3275.20;95.50;;;;;;5007209;28;20058;-67
2021/03/02 04:02:54;;;;;;;128.70;26.40;;;-3275.10;95.40;;;;;;5005112;28;20084;-67
2021/03/02 04:05:20;;;;;;;101.82;25.48;;;-3275.10;95.30;;;;;;5000623;28;20034;-66
2021/03/02 04:07:48;;;;;;;113.43;27.65;;;-3275.10;95.20;;;;;;5005451;28;20034;-69
2021/03/02 04:10:15;;;;;;;100.60;26.95;;;-3275.00;95.10;;;;;;5001358;28;20034;-68
2021/03/02 04:12:43;;;;;;;141.35;28.00;;;-3275.00;95.20;;;;;;5004465;28;20027;-68
2021/03/02 04:15:14;;;;;;;107.97;26.25;;;-3275.00;95.30;;;;;;4994268;28;20056;-68
2021/03/02 04:17:40;;;;;;;121.22;27.55;;;-3275.00;95.20;;;;;;5003867;28;20034;-66
2021/03/02 04:20:07;;;;;;;143.32;29.98;;;-3275.00;95.20;;;;;;5004706;28;20088;-67
2021/03/02 04:22:37;;;;;;;111.78;25.90;;;-3275.00;95.30;;;;;;4988268;28;20537;-67
2021/03/02 04:25:04;;;;;;;108.22;26.35;;;-3275.00;95.20;;;;;;5000714;28;20038;-67
2021/03/02 04:27:29;;;;;;;122.90;29.08;;;-3275.00;95.20;;;;;;5002108;28;20109;-66
2021/03/02 04:29:55;;;;;;;115.88;28.05;;;-3275.00;95.20;;;;;;5006928;28;20128;-67
2021/03/02 04:32:21;;;;;;;127.65;27.67;;;-3275.00;95.20;;;;;;5000250;28;20618;-66
2021/03/02 04:34:46;;;;;;;136.25;28.52;;;-3274.90;95.20;;;;;;5009534;28;20080;-68
2021/03/02 04:37:12;;;;;;;121.35;27.85;;;-3275.00;95.30;;;;;;5003472;28;20041;-67
2021/03/02 04:39:37;;;;;;;127.88;27.95;;;-3274.90;95.20;;;;;;5009499;28;20061;-68
2021/03/02 04:42:04;;;;;;;106.07;27.42;;;-3274.90;95.20;;;;;;5005411;28;20376;-66
2021/03/02 04:44:29;;;;;;;122.85;26.52;;;-3274.90;95.20;;;;;;5008029;28;20080;-68
2021/03/02 04:46:55;;;;;;;137.65;30.42;;;-3274.90;95.10;;;;;;5001161;28;20038;-68
2021/03/02 04:49:20;;;;;;;160.10;30.05;;;-3274.90;95.20;;;;;;5004495;28;20186;-67
2021/03/02 04:51:46;;;;;;;132.90;27.73;;;-3275.00;95.30;;;;;;5008177;28;20029;-67
2021/03/02 04:54:12;;;;;;;123.90;27.50;;;-3275.00;95.40;;;;;;5009249;28;20033;-67
2021/03/02 04:56:37;;;;;;;121.03;27.20;;;-3275.00;95.40;;;;;;5006445;28;20127;-66
2021/03/02 04:59:03;;;;;;;128.15;29.23;;;-3275.00;95.40;;;;;;5003136;28;20076;-65
2021/03/02 05:01:28;;;;;;;135.50;29.48;;;-3274.90;95.30;;;;;;5010039;28;20032;-65
2021/03/02 05:03:54;;;;;;;128.38;27.60;;;-3274.80;95.20;;;;;;5007434;28;20429;-65
2021/03/02 05:06:19;;;;;;;143.02;28.35;;;-3274.90;95.30;;;;;;5002244;28;20190;-65
2021/03/02 05:08:45;;;;;;;130.23;28.27;;;-3274.90;95.40;;;;;;5000697;28;20029;-65
2021/03/02 05:11:11;;;;;;;133.20;28.48;;;-3274.90;95.40;;;;;;5008955;28;20108;-65
2021/03/02 05:13:36;;;;;;;133.90;28.38;;;-3274.90;95.40;;;;;;5006751;28;20037;-65
2021/03/02 05:16:02;;;;;;;119.32;27.40;;;-3274.90;95.40;;;;;;5009098;28;20030;-65
2021/03/02 05:18:27;;;;;;;120.18;27.98;;;-3274.80;95.40;;;;;;5000433;28;20026;-66
2021/03/02 05:20:53;;;;;;;121.05;28.73;;;-3274.80;95.40;;;;;;5003104;28;20060;-65
2021/03/02 05:23:18;;;;;;;111.28;26.85;;;-3274.80;95.40;;;;;;5007546;28;20179;-65
2021/03/02 05:25:44;;;;;;;124.22;26.02;;;-3274.80;95.30;;;;;;5005876;28;20080;-66
2021/03/02 05:28:10;;;;;;;134.65;28.70;;;-3274.80;95.30;;;;;;5004153;28;20080;-65
2021/03/02 05:30:35;;;;;;;136.98;29.00;;;-3274.90;95.40;;;;;;5006598;28;20110;-66
2021/03/02 05:33:01;;;;;;;146.75;28.80;;;-3274.80;95.40;;;;;;5009287;28;20023;-68
2021/03/02 05:35:26;;;;;;;118.15;28.08;;;-3274.90;95.50;;;;;;5013921;28;20496;-67
2021/03/02 05:37:52;;;;;;;117.15;28.08;;;-3274.90;95.50;;;;;;4998493;28;20355;-68
2021/03/02 05:40:17;;;;;;;128.82;27.50;;;-3274.80;95.50;;;;;;5008408;28;20034;-68
2021/03/02 05:42:43;;;;;;;114.18;27.45;;;-3274.90;95.50;;;;;;4996353;28;20105;-67
2021/03/02 05:45:09;;;;;;;128.77;27.73;;;-3274.90;95.50;;;;;;5000851;28;20162;-66
2021/03/02 05:47:35;;;;;;;116.35;27.67;;;-3274.80;95.50;;;;;;4998235;28;20441;-65
2021/03/02 05:50:04;;;;;;;109.82;28.13;;;-3274.80;95.50;;;;;;5000078;28;20025;-66
2021/03/02 05:52:31;;;;;;;120.50;27.75;;;-3274.80;95.40;;;;;;5004810;28;20026;-66
2021/03/02 05:54:59;;;;;;;99.68;26.23;;;-3274.70;95.30;;;;;;5001718;28;20513;-66
2021/03/02 05:57:25;;;;;;;116.13;26.98;;;-3274.70;95.30;;;;;;5002397;28;20525;-67
2021/03/02 05:59:51;;;;;;;102.72;25.83;;;-3274.70;95.20;;;;;;4993379;28;20038;-68
2021/03/02 06:02:21;;;;;;;107.88;27.40;;;-3274.70;95.20;;;;;;5004471;28;20082;-66
2021/03/02 06:04:48;;;;;;;102.35;25.42;;;-3274.70;95.20;;;;;;4996184;28;20034;-66
2021/03/02 06:07:14;;;;;;;112.50;25.73;;;-3274.70;95.20;;;;;;4997695;28;20168;-66
2021/03/02 06:09:40;;;;;;;139.95;28.23;;;-3274.70;95.20;;;;;;5002206;28;20128;-66
2021/03/02 06:12:06;;;;;;;126.40;27.98;;;-3274.80;95.30;;;;;;5009294;28;20032;-68
2021/03/02 06:14:34;;;;;;;121.45;27.75;;;-3274.80;95.20;;;;;;5004926;28;20447;-65
2021/03/02 06:17:01;;;;;;;102.45;26.83;;;-3274.80;95.20;;;;;;5009106;28;20045;-66
2021/03/02 06:19:46;;;;;;;112.70;26.35;;;-3274.80;95.20;;;;;;5003272;28;20521;-66
2021/03/02 06:22:32;;;;;;;145.98;30.70;;;-3274.80;95.20;;;;;;5008762;28;20033;-65
2021/03/02 06:24:58;;;;;;;166.65;32.78;;;-3275.00;95.50;;;;;;5007627;28;20060;-67
2021/03/02 06:27:24;;;;;;;132.30;28.42;;;-3275.10;95.60;;;;;;5004785;28;20121;-67
2021/03/02 06:30:13;;;;;;;124.35;30.27;;;-3275.00;95.40;;;;;;5002175;28;20121;-68
2021/03/02 06:32:45;;;;;;;123.97;27.85;;;-3275.00;95.40;;;;;;5007709;28;20025;-66
2021/03/02 06:35:11;;;;;;;144.98;29.95;;;-3275.00;95.40;;;;;;4981866;28;20044;-67
2021/03/02 06:37:45;;;;;;;140.63;28.88;;;-3275.00;95.40;;;;;;5001228;28;20100;-68
2021/03/02 06:40:13;;;;;;;163.93;32.47;;;-3275.10;95.60;;;;;;5007092;28;20037;-67
2021/03/02 06:42:40;;;;;;;135.65;31.27;;;-3275.30;95.80;;;;;;5002411;28;20045;-66
2021/03/02 06:45:13;;;;;;;151.48;33.45;;;-3275.30;95.70;;;;;;5001760;28;20034;-66
2021/03/02 06:47:41;;;;;;;167.13;35.03;;;-3275.40;95.80;;;;;;5003088;28;20121;-66
2021/03/02 06:50:12;;;;;;;132.73;31.23;;;-3275.50;95.80;;;;;;5005392;28;20076;-65
2021/03/02 06:52:41;;;;;;;127.63;29.33;;;-3275.40;95.60;;;;;;5001001;28;20057;-66
2021/03/02 06:55:15;;;;;;;137.25;29.05;;;-3275.40;95.60;;;;;;5001120;28;20033;-69
2021/03/02 06:57:42;;;;;;;144.00;30.52;;;-3275.40;95.50;;;;;;5004846;28;20371;-66
2021/03/02 07:00:08;;;;;;;131.85;31.20;;;-3275.50;95.50;;;;;;4998008;28;20069;-67
2021/03/02 07:02:38;;;;;;;163.50;33.50;;;-3275.50;95.50;;;;;;4999276;28;20560;-67
2021/03/02 07:05:05;;;;;;;162.43;33.60;;;-3275.70;95.60;;;;;;5006798;28;20037;-66
2021/03/02 07:07:31;;;;;;;178.55;35.17;;;-3275.80;95.70;;;;;;5007634;28;20446;-67
2021/03/02 07:09:58;;;;;;;189.20;36.92;;;-3275.90;95.80;;;;;;5004957;28;20025;-66
2021/03/02 07:12:24;;;;;;;185.70;37.85;;;-3276.10;96.00;;;;;;5008982;28;20018;-66
2021/03/02 07:14:50;;;;;;;189.18;38.55;;;-3276.20;96.00;;;;;;5006758;28;20379;-66
2021/03/02 07:17:15;;;;;;;195.70;38.10;;;-3276.40;96.10;;;;;;5007873;28;20053;-66
2021/03/02 07:19:41;;;;;;;189.45;37.75;;;-3276.60;96.30;;;;;;5002285;28;20041;-68
2021/03/02 07:22:10;;;;;;;189.75;39.10;;;-3276.70;96.30;;;;;;5008756;28;20092;-66
2021/03/02 07:24:39;;;;;;;161.93;36.35;;;0.00;96.40;;;;;;5006973;28;20427;-67
2021/03/02 07:27:08;;;;;;;155.68;37.97;;;0.10;96.30;;;;;;4987804;28;20562;-68
2021/03/02 07:29:34;;;;;;;181.50;39.30;;;0.10;96.20;;;;;;5003268;28;20026;-67
2021/03/02 07:32:02;;;;;;;175.30;37.92;;;0.20;96.20;;;;;;5008206;28;20113;-66
2021/03/02 07:34:29;;;;;;;179.77;39.63;;;0.50;96.30;;;;;;5005125;28;20375;-66
2021/03/02 07:36:54;;;;;;;181.90;38.58;;;0.50;96.20;;;;;;5004816;28;20507;-66
2021/03/02 07:39:25;;;;;;;190.70;39.28;;;0.70;96.20;;;;;;5005863;28;20030;-68
2021/03/02 07:41:54;;;;;;;216.05;39.83;;;1.00;96.30;;;;;;4999604;28;20022;-68
2021/03/02 07:44:20;;;;;;;172.77;38.28;;;1.30;96.40;;;;;;5000540;28;20038;-68
2021/03/02 07:46:53;;;;;;;186.40;39.08;;;1.60;96.50;;;;;;5000916;28;20391;-65
2021/03/02 07:49:32;;;;;;;183.05;40.15;;;1.80;96.50;;;;;;5002831;28;20141;-67
2021/03/02 07:52:00;;;;;;;168.45;37.65;;;2.00;96.40;;;;;;4999224;28;20028;-66
2021/03/02 07:54:26;;;;;;;132.27;35.80;;;2.10;96.00;;;;;;5005992;28;20410;-67
2021/03/02 07:57:16;;;;;;;134.68;34.95;;;2.10;95.30;;;;;;5000087;28;20346;-67
2021/03/02 07:59:44;;;;;;;121.18;33.63;;;2.20;94.70;;;;;;5000948;28;20026;-66
2021/03/02 08:02:20;;;;;;;93.95;30.45;;;2.20;93.90;;;;;;5001826;28;20057;-69
2021/03/02 08:04:46;;;;;;;122.28;33.35;;;2.40;93.80;;;;;;5002659;28;20069;-69
2021/03/02 08:07:21;;;;;;;92.90;30.08;;;2.80;94.20;;;;;;5001536;28;20061;-67
2021/03/02 08:09:49;;;;;;;79.95;27.02;;;2.80;93.20;;;;;;4994060;28;20038;-66
2021/03/02 08:12:36;;;;;;;64.38;23.92;;;2.90;92.60;;;;;;5007447;28;20052;-66
2021/03/02 08:15:21;;;;;;;71.32;24.70;;;3.10;92.40;;;;;;5005875;28;20558;-67
2021/03/02 08:17:47;;;;;;;59.95;22.88;;;3.20;91.40;;;;;;5006976;28;20030;-67
2021/03/02 08:20:13;;;;;;;50.13;22.50;;;3.50;92.30;;;;;;5002802;28;20038;-67
2021/03/02 08:22:41;;;;;;;49.55;20.77;;;3.70;91.00;;;;;;4998171;28;20029;-68
2021/03/02 08:25:21;;;;;;;43.08;21.10;;;3.70;90.10;;;;;;4998832;28;20300;-67
2021/03/02 08:27:57;;;;;;;47.60;21.27;;;3.90;89.90;;;;;;4998145;28;20320;-67
2021/03/02 08:30:37;;;;;;;45.35;20.30;;;4.20;88.80;;;;;;4992566;28;20040;-67
2021/03/02 08:33:13;;;;;;;40.90;20.05;;;4.60;89.50;;;;;;5000375;28;20506;-67
2021/03/02 08:35:41;;;;;;;39.65;20.10;;;5.10;89.40;;;;;;4997380;28;20034;-67
2021/03/02 08:38:11;;;;;;;33.88;18.73;;;5.10;87.50;;;;;;4997296;28;20053;-68
2021/03/02 08:40:36;;;;;;;36.15;19.15;;;5.30;87.40;;;;;;4997418;28;20433;-67
2021/03/02 08:43:03;;;;;;;32.63;17.30;;;5.80;87.90;;;;;;4991379;28;20033;-69
2021/03/02 08:45:31;;;;;;;28.08;16.73;;;5.40;86.60;;;;;;4996104;28;20080;-67
2021/03/02 08:48:32;;;;;;;29.52;16.45;;;5.80;85.30;;;;;;4999171;28;20026;-67
2021/03/02 08:51:02;;;;;;;30.42;16.25;;;6.20;85.50;;;;;;4897999;29;20525;-68
2021/03/02 08:53:30;;;;;;;28.98;16.48;;;6.30;83.80;;;;;;4981526;28;20453;-69
2021/03/02 08:55:57;;;;;;;24.45;15.23;;;6.30;84.10;;;;;;4996949;28;20029;-67
2021/03/02 08:58:38;;;;;;;30.42;16.27;;;6.40;83.90;;;;;;4998865;28;20026;-67
2021/03/02 09:01:11;;;;;;;25.60;14.85;;;6.50;81.80;;;;;;4996119;28;20033;-68
2021/03/02 09:03:39;;;;;;;28.45;15.93;;;6.40;82.00;;;;;;4995820;28;20045;-69
2021/03/02 09:06:09;;;;;;;25.30;14.95;;;6.60;82.90;;;;;;4999408;28;20049;-67
2021/03/02 09:08:46;;;;;;;25.92;15.05;;;6.80;81.00;;;;;;4995634;28;20469;-68
2021/03/02 09:11:13;;;;;;;22.00;13.80;;;6.80;80.90;;;;;;4993720;28;20038;-68
2021/03/02 09:13:40;;;;;;;26.17;14.23;;;6.80;80.50;;;;;;5002902;28;20136;-67
2021/03/02 09:16:21;;;;;;;24.58;14.88;;;7.40;81.20;;;;;;5002177;28;20045;-67
2021/03/02 09:19:13;;;;;;;22.67;14.38;;;7.60;80.40;;;;;;5001186;28;20136;-70
2021/03/02 09:21:54;;;;;;;25.23;13.98;;;7.70;79.10;;;;;;5002039;28;20057;-68
2021/03/02 09:24:25;;;;;;;24.98;13.57;;;7.50;78.70;;;;;;5002157;28;20022;-67
2021/03/02 09:27:03;;;;;;;26.73;15.95;;;7.70;78.60;;;;;;5000276;28;20124;-68
2021/03/02 09:29:34;;;;;;;27.05;16.30;;;7.90;77.50;;;;;;4993504;28;20560;-68
2021/03/02 09:32:03;;;;;;;28.85;15.68;;;8.00;76.70;;;;;;5002683;28;20402;-70
2021/03/02 09:34:40;;;;;;;24.85;14.48;;;8.20;78.60;;;;;;4999103;28;20018;-67
2021/03/02 09:37:10;;;;;;;26.45;15.10;;;8.40;77.80;;;;;;5000682;28;20034;-69
2021/03/02 09:39:38;;;;;;;24.35;14.55;;;8.60;75.40;;;;;;4997712;28;20588;-67
2021/03/02 09:42:28;;;;;;;25.88;15.40;;;8.60;75.20;;;;;;5002998;28;20493;-68
2021/03/02 09:45:11;;;;;;;23.70;14.30;;;8.50;75.50;;;;;;4999412;28;20511;-67
2021/03/02 09:47:38;;;;;;;20.85;13.77;;;8.80;75.30;;;;;;5001979;28;20037;-68
2021/03/02 09:50:09;;;;;;;22.77;14.73;;;9.10;74.50;;;;;;4998900;28;20077;-67
2021/03/02 09:52:38;;;;;;;;;;;9.40;72.70;;;;;;5000204;28;20062;-70
2021/03/02 09:55:12;;;;;;;23.77;13.85;;;9.60;71.60;;;;;;4998362;28;20406;-67
2021/03/02 09:58:11;;;;;;;21.75;14.15;;;9.70;71.60;;;;;;5002108;28;20062;-69
2021/03/02 10:00:39;;;;;;;23.40;14.68;;;9.40;71.50;;;;;;4995607;28;20112;-68
2021/03/02 10:03:07;;;;;;;21.55;13.32;;;9.80;71.70;;;;;;4999137;28;20462;-67
2021/03/02 10:05:43;;;;;;;23.48;14.25;;;9.90;69.90;;;;;;4997967;28;20433;-67
2021/03/02 10:08:27;;;;;;;22.08;13.10;;;9.80;68.80;;;;;;5000064;28;20360;-69
2021/03/02 10:10:55;;;;;;;21.55;13.23;;;10.10;69.60;;;;;;4999463;28;20449;-68
2021/03/02 10:13:26;;;;;;;22.55;13.20;;;9.90;69.00;;;;;;5002740;28;20438;-66
2021/03/02 10:16:15;;;;;;;22.70;13.82;;;10.10;68.70;;;;;;5000275;28;20521;-68
2021/03/02 10:18:55;;;;;;;19.00;12.85;;;9.90;66.50;;;;;;4995775;28;20757;-67
2021/03/02 10:21:23;;;;;;;19.60;12.20;;;9.80;66.10;;;;;;4998087;28;20065;-67
2021/03/02 10:23:51;;;;;;;23.45;13.18;;;10.20;66.60;;;;;;4999900;28;20040;-68
2021/03/02 10:26:44;;;;;;;18.88;12.40;;;10.00;67.60;;;;;;4997611;28;20029;-68
2021/03/02 10:29:11;;;;;;;18.45;12.07;;;10.40;66.90;;;;;;4991062;28;20843;-69
2021/03/02 10:31:36;;;;;;;21.20;13.27;;;10.40;66.20;;;;;;4999206;28;20269;-71
2021/03/02 10:34:04;;;;;;;21.23;12.32;;;10.70;65.20;;;;;;4998855;28;20033;-67
2021/03/02 10:36:33;;;;;;;18.85;11.40;;;10.80;65.90;;;;;;4999812;28;20034;-67
2021/03/02 10:39:01;;;;;;;19.40;11.77;;;10.50;63.30;;;;;;4998883;28;20616;-68
2021/03/02 10:41:27;;;;;;;18.02;11.15;;;10.80;64.40;;;;;;4998545;28;20030;-69
2021/03/02 10:43:54;;;;;;;18.40;11.13;;;10.80;64.60;;;;;;4997999;28;20034;-69
2021/03/02 10:46:21;;;;;;;19.50;12.25;;;11.00;62.90;;;;;;4996771;28;20041;-69
2021/03/02 10:48:47;;;;;;;19.17;11.65;;;11.00;63.40;;;;;;4998656;28;20746;-68
2021/03/02 10:51:17;;;;;;;20.40;11.68;;;10.80;64.40;;;;;;4997112;28;20136;-67
2021/03/02 10:53:43;;;;;;;19.50;11.27;;;10.80;64.50;;;;;;4998513;28;20072;-67
2021/03/02 10:56:09;;;;;;;20.50;11.52;;;11.00;63.00;;;;;;4998416;28;20046;-67
2021/03/02 10:58:35;;;;;;;19.13;11.32;;;11.20;62.80;;;;;;4999887;28;20022;-67
2021/03/02 11:01:01;;;;;;;17.50;11.48;;;11.20;62.10;;;;;;4994334;28;20497;-68
2021/03/02 11:03:26;;;;;;;18.15;10.70;;;11.50;63.10;;;;;;4995418;28;20034;-68
2021/03/02 11:05:52;;;;;;;18.98;10.88;;;11.30;61.90;;;;;;4996170;28;20041;-68
2021/03/02 11:08:18;;;;;;;17.38;10.63;;;11.50;62.50;;;;;;4996829;28;20203;-68
2021/03/02 11:10:44;;;;;;;15.38;9.75;;;11.90;60.60;;;;;;4989645;28;20232;-67
2021/03/02 11:13:10;;;;;;;16.80;10.43;;;11.90;59.60;;;;;;5000105;28;20316;-67
2021/03/02 11:15:36;;;;;;;17.10;10.00;;;11.70;59.90;;;;;;4999473;28;20030;-68
2021/03/02 11:18:01;;;;;;;17.05;10.35;;;12.00;59.80;;;;;;4998494;28;20124;-69
2021/03/02 11:20:27;;;;;;;18.98;10.32;;;11.60;59.20;;;;;;4995274;28;20042;-68
2021/03/02 11:22:52;;;;;;;16.00;9.68;;;11.90;58.40;;;;;;4999760;28;20455;-66
2021/03/02 11:25:18;;;;;;;15.30;8.90;;;12.00;58.20;;;;;;4998031;28;20037;-68
2021/03/02 11:27:47;;;;;;;14.20;8.88;;;12.30;56.20;;;;;;4996689;28;20048;-68
2021/03/02 11:30:14;;;;;;;16.90;9.00;;;12.60;57.30;;;;;;4997092;28;20549;-66
2021/03/02 11:32:41;;;;;;;13.15;7.75;;;12.60;54.90;;;;;;4999547;28;20030;-69
2021/03/02 11:35:08;;;;;;;14.55;8.45;;;12.90;55.10;;;;;;4995997;28;20061;-66
2021/03/02 11:37:39;;;;;;;14.77;9.05;;;12.80;54.60;;;;;;5000026;28;20050;-67
2021/03/02 11:40:12;;;;;;;15.23;9.05;;;13.00;55.90;;;;;;4997141;28;20030;-67
2021/03/02 11:42:38;;;;;;;14.55;8.50;;;13.10;54.90;;;;;;4999268;28;20080;-67
2021/03/02 11:45:08;;;;;;;12.57;7.80;;;13.10;53.30;;;;;;4980212;28;20116;-67
2021/03/02 11:47:34;;;;;;;12.60;7.80;;;13.40;52.90;;;;;;4998827;28;20112;-68
2021/03/02 11:50:00;;;;;;;12.30;7.50;;;13.70;52.50;;;;;;4994929;28;20552;-68
2021/03/02 11:52:26;;;;;;;12.85;7.93;;;13.80;51.80;;;;;;4999392;28;20045;-67
2021/03/02 11:54:52;;;;;;;13.02;7.22;;;14.10;50.60;;;;;;4992781;28;20139;-68
2021/03/02 11:57:18;;;;;;;13.07;7.80;;;14.00;50.20;;;;;;4996933;28;20060;-69
2021/03/02 11:59:44;;;;;;;11.60;6.90;;;14.40;50.00;;;;;;4992807;28;20502;-67
2021/03/02 12:02:15;;;;;;;10.48;6.38;;;14.50;50.80;;;;;;4998794;28;20877;-67
2021/03/02 12:04:41;;;;;;;10.30;5.90;;;14.60;48.80;;;;;;4995589;28;20092;-67
2021/03/02 12:07:11;;;;;;;10.48;6.10;;;14.80;49.30;;;;;;4994315;28;20619;-67
2021/03/02 12:09:38;;;;;;;10.60;5.78;;;15.00;48.00;;;;;;4991737;28;20268;-67
2021/03/02 12:12:05;;;;;;;9.50;5.82;;;15.00;47.00;;;;;;4997879;28;20081;-69
2021/03/02 12:14:32;;;;;;;10.80;6.20;;;15.40;46.40;;;;;;4996773;28;20088;-69
2021/03/02 12:16:58;;;;;;;9.80;5.82;;;15.30;44.20;;;;;;4995988;28;20113;-69